Time;durP1;ratioP1;P1;durP2;ratioP2;P2;SDS_P1;SDS_P2;PMS_P1;PMS_P2;Temp;Humidity;BMP_temperature;BMP_pressure;BME280_temperature;BME280_humidity;BME280_pressure;Samples;Min_cycle;Max_cycle;Signal;HPM_P1;HPM_P2
2024/03/21 00:00:30;;;;;;;4.70;2.22;;;;;;;;;;10248089;28;20074;-74
2024/03/21 00:05:34;;;;;;;3.25;2.13;;;;;;;;;;10241971;28;20082;-74
2024/03/21 00:10:38;;;;;;;2.65;1.90;;;;;;;;;;10247690;28;20126;-74
2024/03/21 00:15:41;;;;;;;2.88;1.98;;;;;;;;;;10247295;28;20065;-74
2024/03/21 00:20:45;;;;;;;3.67;2.30;;;;;;;;;;10266506;28;20070;-74
2024/03/21 00:25:49;;;;;;;6.50;2.58;;;;;;;;;;10279437;28;20135;-73
2024/03/21 00:30:54;;;;;;;3.42;2.10;;;;;;;;;;10252044;28;20117;-74
2024/03/21 00:35:57;;;;;;;4.13;2.08;;;;;;;;;;10256761;28;20038;-74
2024/03/21 00:41:00;;;;;;;3.40;2.47;;;;;;;;;;10264950;28;20138;-74
2024/03/21 00:46:03;;;;;;;4.10;2.40;;;;;;;;;;10267140;28;20041;-74
2024/03/21 00:51:06;;;;;;;3.10;2.05;;;;;;;;;;10252772;28;20075;-73
2024/03/21 00:56:11;;;;;;;5.10;2.35;;;;;;;;;;10252103;28;20078;-74
2024/03/21 01:01:13;;;;;;;4.00;2.20;;;;;;;;;;10257253;28;20043;-74
2024/03/21 01:06:16;;;;;;;3.80;2.13;;;;;;;;;;10268566;28;20086;-74
2024/03/21 01:11:19;;;;;;;3.70;2.03;;;;;;;;;;10272385;28;20049;-74
2024/03/21 01:16:22;;;;;;;3.28;2.00;;;;;;;;;;10257533;28;20050;-74
2024/03/21 01:21:24;;;;;;;4.47;2.45;;;;;;;;;;10263458;28;20039;-74
2024/03/21 01:26:28;;;;;;;4.93;2.25;;;;;;;;;;10249194;28;20050;-74
2024/03/21 01:31:30;;;;;;;2.53;2.00;;;;;;;;;;10255991;28;20530;-74
2024/03/21 01:36:34;;;;;;;3.10;2.35;;;;;;;;;;10251270;28;20420;-74
2024/03/21 01:41:38;;;;;;;4.30;2.42;;;;;;;;;;10251457;28;20116;-74
2024/03/21 01:46:40;;;;;;;5.03;2.70;;;;;;;;;;10254440;28;20043;-74
2024/03/21 01:51:45;;;;;;;3.58;2.55;;;;;;;;;;10245848;28;20055;-73
2024/03/21 01:56:49;;;;;;;3.72;2.45;;;;;;;;;;10249520;28;20053;-74
2024/03/21 02:01:55;;;;;;;5.18;2.65;;;;;;;;;;10244632;28;20492;-73
2024/03/21 02:06:58;;;;;;;;;;;;;;;;;;10257555;28;20421;-74
2024/03/21 02:12:09;;;;;;;3.33;2.40;;;;;;;;;;10257665;28;19922;-74
2024/03/21 02:17:11;;;;;;;4.15;2.65;;;;;;;;;;10228860;28;20043;-73
2024/03/21 02:27:35;;;;;;;6.30;2.72;;;;;;;;;;10241221;28;20057;-73
2024/03/21 02:32:38;;;;;;;5.20;2.90;;;;;;;;;;10240189;28;20043;-73
2024/03/21 02:37:42;;;;;;;4.75;2.60;;;;;;;;;;10239763;28;20130;-74
2024/03/21 02:42:44;;;;;;;4.57;2.38;;;;;;;;;;10243102;28;20492;-74
2024/03/21 02:47:46;;;;;;;4.10;2.38;;;;;;;;;;10249191;28;20047;-74
2024/03/21 02:52:50;;;;;;;3.30;2.30;;;;;;;;;;10251277;28;20420;-74
2024/03/21 02:57:53;;;;;;;3.40;2.15;;;;;;;;;;10257101;28;20073;-74
2024/03/21 03:02:55;;;;;;;2.70;2.10;;;;;;;;;;10243492;28;20419;-74
2024/03/21 03:07:59;;;;;;;2.47;1.92;;;;;;;;;;10268378;28;20039;-74
2024/03/21 03:13:01;;;;;;;3.13;2.28;;;;;;;;;;10249107;28;20066;-73
2024/03/21 03:18:03;;;;;;;3.28;1.67;;;;;;;;;;10259288;28;20530;-74
2024/03/21 03:23:09;;;;;;;1.67;1.33;;;;;;;;;;10295107;28;20058;-74
2024/03/21 03:28:11;;;;;;;3.10;1.90;;;;;;;;;;10263659;28;20730;-74
2024/03/21 03:38:31;;;;;;;;;;;;;;;;;;10261645;28;20031;-74
2024/03/21 03:43:33;;;;;;;1.63;1.50;;;;;;;;;;10251794;28;19926;-74
2024/03/21 03:48:36;;;;;;;2.95;1.73;;;;;;;;;;10260938;28;20581;-73
2024/03/21 03:53:39;;;;;;;1.80;1.55;;;;;;;;;;10246240;28;20046;-74
2024/03/21 03:58:42;;;;;;;2.20;1.80;;;;;;;;;;10255810;28;20047;-74
2024/03/21 04:03:45;;;;;;;3.33;1.40;;;;;;;;;;10255746;28;20046;-74
2024/03/21 04:08:49;;;;;;;2.42;1.70;;;;;;;;;;10252345;28;20038;-74
2024/03/21 04:13:51;;;;;;;2.90;1.40;;;;;;;;;;10256848;28;20057;-74
2024/03/21 04:18:53;;;;;;;1.73;1.60;;;;;;;;;;10246124;28;20046;-73
2024/03/21 04:23:57;;;;;;;1.55;1.45;;;;;;;;;;10249361;28;20508;-74
2024/03/21 04:28:59;;;;;;;2.85;1.92;;;;;;;;;;10242695;28;20850;-74
2024/03/21 04:34:01;;;;;;;3.55;1.48;;;;;;;;;;10246424;28;20043;-74
2024/03/21 04:39:05;;;;;;;1.95;1.63;;;;;;;;;;10254502;28;20703;-74
2024/03/21 04:44:08;;;;;;;2.17;1.70;;;;;;;;;;10261092;28;20121;-74
2024/03/21 04:49:10;;;;;;;2.05;1.70;;;;;;;;;;10243770;28;20039;-74
2024/03/21 04:54:14;;;;;;;3.17;1.30;;;;;;;;;;10238339;28;20496;-74
2024/03/21 04:59:16;;;;;;;3.47;1.83;;;;;;;;;;10249540;28;20039;-74
2024/03/21 05:04:18;;;;;;;3.10;1.45;;;;;;;;;;10243249;28;20042;-74
2024/03/21 05:09:22;;;;;;;2.10;1.67;;;;;;;;;;10240407;28;20063;-74
2024/03/21 05:14:24;;;;;;;1.70;1.40;;;;;;;;;;10235471;28;20042;-74
2024/03/21 05:19:27;;;;;;;1.45;1.20;;;;;;;;;;10261184;23;20050;-75
2024/03/21 05:24:31;;;;;;;2.33;1.45;;;;;;;;;;10258174;28;20143;-75
2024/03/21 05:29:33;;;;;;;4.28;1.77;;;;;;;;;;10256929;28;20045;-75
2024/03/21 05:34:36;;;;;;;1.85;1.60;;;;;;;;;;10258614;28;20047;-75
2024/03/21 05:39:40;;;;;;;2.97;2.03;;;;;;;;;;10257201;28;20644;-75
2024/03/21 05:44:42;;;;;;;1.98;1.65;;;;;;;;;;10258512;28;20064;-75
2024/03/21 05:49:44;;;;;;;2.70;1.92;;;;;;;;;;10297145;28;20120;-75
2024/03/21 05:54:51;;;;;;;4.93;1.95;;;;;;;;;;10348794;28;20102;-75
2024/03/21 05:59:55;;;;;;;2.83;2.10;;;;;;;;;;10278331;28;20492;-75
2024/03/21 06:04:57;;;;;;;2.92;1.85;;;;;;;;;;10293287;28;20047;-75
2024/03/21 06:10:01;;;;;;;3.00;1.67;;;;;;;;;;10323245;28;20043;-75
2024/03/21 06:15:04;;;;;;;2.58;1.85;;;;;;;;;;10253245;28;20073;-75
2024/03/21 06:20:09;;;;;;;3.22;1.70;;;;;;;;;;10249370;28;20035;-75
2024/03/21 06:25:12;;;;;;;1.98;1.70;;;;;;;;;;10256155;28;20425;-75
2024/03/21 06:30:15;;;;;;;4.30;1.92;;;;;;;;;;10259016;28;20103;-75
2024/03/21 06:35:18;;;;;;;2.95;1.63;;;;;;;;;;10264111;28;20047;-75
2024/03/21 06:40:23;;;;;;;3.13;2.13;;;;;;;;;;10262924;28;20054;-75
2024/03/21 06:45:25;;;;;;;2.70;2.10;;;;;;;;;;10258426;28;20326;-75
2024/03/21 06:50:27;;;;;;;4.97;2.75;;;;;;;;;;10271095;28;20054;-75
2024/03/21 06:55:31;;;;;;;2.85;2.35;;;;;;;;;;10242504;28;20538;-75
2024/03/21 07:00:34;;;;;;;4.47;2.95;;;;;;;;;;10254914;28;20196;-75
2024/03/21 07:05:36;;;;;;;4.80;3.22;;;;;;;;;;10255538;28;20488;-75
2024/03/21 07:10:40;;;;;;;4.63;2.65;;;;;;;;;;10255254;28;20126;-75
2024/03/21 07:15:43;;;;;;;3.55;2.83;;;;;;;;;;10272376;28;20055;-75
2024/03/21 07:20:54;;;;;;;3.70;2.33;;;;;;;;;;10253351;28;20125;-75
2024/03/21 07:25:58;;;;;;;4.32;2.38;;;;;;;;;;10264002;28;20107;-75
2024/03/21 07:31:00;;;;;;;3.63;2.72;;;;;;;;;;10267843;28;20074;-75
2024/03/21 07:36:03;;;;;;;3.70;2.60;;;;;;;;;;10285770;28;20135;-75
2024/03/21 07:41:07;;;;;;;3.95;2.80;;;;;;;;;;10254400;28;20043;-75
2024/03/21 07:46:10;;;;;;;6.15;4.28;;;;;;;;;;10254952;28;20142;-75
2024/03/21 07:51:12;;;;;;;13.80;9.57;;;;;;;;;;10267103;28;20091;-75
2024/03/21 07:56:16;;;;;;;22.38;15.90;;;;;;;;;;10253831;28;20043;-75
2024/03/21 08:01:19;;;;;;;18.25;11.35;;;;;;;;;;10262379;28;20195;-75
2024/03/21 08:06:21;;;;;;;19.83;13.05;;;;;;;;;;10252766;28;20054;-75
2024/03/21 08:11:25;;;;;;;38.10;25.70;;;;;;;;;;10270304;28;20126;-75
2024/03/21 08:16:28;;;;;;;41.63;26.10;;;;;;;;;;10253144;28;20797;-75
2024/03/21 08:21:30;;;;;;;36.22;24.58;;;;;;;;;;10256423;28;20071;-75
2024/03/21 08:26:34;;;;;;;33.60;21.92;;;;;;;;;;10247505;28;20043;-75
2024/03/21 08:31:36;;;;;;;47.08;30.73;;;;;;;;;;10262113;28;20051;-75
2024/03/21 08:36:39;;;;;;;51.35;32.42;;;;;;;;;;10268752;28;20057;-75
2024/03/21 08:41:42;;;;;;;45.97;30.00;;;;;;;;;;10253231;28;20058;-75
2024/03/21 08:46:45;;;;;;;39.60;24.10;;;;;;;;;;10268205;28;20051;-75
2024/03/21 08:51:47;;;;;;;39.67;27.75;;;;;;;;;;10269143;28;20046;-75
2024/03/21 08:56:51;;;;;;;43.78;28.98;;;;;;;;;;10259731;28;20175;-75
2024/03/21 09:01:53;;;;;;;40.28;27.15;;;;;;;;;;10257021;28;20046;-75
2024/03/21 09:06:56;;;;;;;42.58;26.85;;;;;;;;;;10258218;28;20043;-75
2024/03/21 09:12:00;;;;;;;36.67;25.45;;;;;;;;;;10257815;28;20103;-75
2024/03/21 09:17:02;;;;;;;29.95;20.77;;;;;;;;;;10262954;28;20142;-75
2024/03/21 09:22:05;;;;;;;40.67;26.42;;;;;;;;;;10259034;28;20047;-75
2024/03/21 09:27:09;;;;;;;44.47;28.40;;;;;;;;;;10258402;28;20556;-75
2024/03/21 09:32:11;;;;;;;34.08;23.65;;;;;;;;;;10253547;28;20047;-75
2024/03/21 09:37:14;;;;;;;32.10;20.65;;;;;;;;;;10265375;28;20665;-75
2024/03/21 09:42:19;;;;;;;28.42;18.85;;;;;;;;;;10255884;28;20466;-75
2024/03/21 09:47:24;;;;;;;25.52;17.48;;;;;;;;;;10264565;28;20077;-75
2024/03/21 09:52:27;;;;;;;19.52;14.15;;;;;;;;;;10253440;28;20082;-75
2024/03/21 09:57:31;;;;;;;22.13;15.35;;;;;;;;;;10256137;28;20565;-75
2024/03/21 10:02:34;;;;;;;18.92;13.32;;;;;;;;;;10255478;28;20078;-75
2024/03/21 10:07:37;;;;;;;17.20;12.63;;;;;;;;;;10275595;28;20129;-75
2024/03/21 10:12:41;;;;;;;18.77;12.63;;;;;;;;;;10256653;28;20116;-75
2024/03/21 10:17:43;;;;;;;14.85;10.82;;;;;;;;;;10259463;28;20602;-75
2024/03/21 10:22:46;;;;;;;17.73;13.30;;;;;;;;;;10260467;28;20348;-75
2024/03/21 10:27:53;;;;;;;14.13;10.70;;;;;;;;;;10255566;28;20142;-75
2024/03/21 10:32:57;;;;;;;16.83;11.27;;;;;;;;;;10260950;28;20099;-75
2024/03/21 10:38:00;;;;;;;18.95;13.48;;;;;;;;;;10246278;28;20634;-75
2024/03/21 10:43:05;;;;;;;17.73;12.57;;;;;;;;;;10260478;28;20082;-75
2024/03/21 10:48:29;;;;;;;14.80;10.85;;;;;;;;;;10251683;28;20049;-75
2024/03/21 10:53:31;;;;;;;9.45;6.75;;;;;;;;;;10338230;28;20590;-75
2024/03/21 10:58:43;;;;;;;10.30;7.93;;;;;;;;;;10260616;28;20066;-75
2024/03/21 11:03:51;;;;;;;9.85;7.15;;;;;;;;;;10274021;28;20211;-75
2024/03/21 11:08:55;;;;;;;9.07;6.90;;;;;;;;;;10260977;28;20083;-75
2024/03/21 11:14:02;;;;;;;10.43;7.50;;;;;;;;;;10258163;28;20141;-75
2024/03/21 11:19:05;;;;;;;9.60;7.13;;;;;;;;;;10361352;23;20259;-76
2024/03/21 11:24:15;;;;;;;6.22;4.93;;;;;;;;;;10279069;28;20051;-76
2024/03/21 11:29:18;;;;;;;6.85;5.65;;;;;;;;;;10277404;28;20043;-76
2024/03/21 11:34:23;;;;;;;10.63;6.60;;;;;;;;;;10258937;28;20138;-76
2024/03/21 11:39:27;;;;;;;9.43;6.78;;;;;;;;;;10271749;28;20095;-76
2024/03/21 11:44:31;;;;;;;10.18;6.78;;;;;;;;;;10355447;28;20511;-76
2024/03/21 11:49:33;;;;;;;8.68;6.80;;;;;;;;;;10368057;28;20107;-76
2024/03/21 11:54:36;;;;;;;8.90;7.20;;;;;;;;;;10294715;28;20137;-76
2024/03/21 11:59:41;;;;;;;12.10;7.95;;;;;;;;;;10281158;28;20035;-76
2024/03/21 12:04:43;;;;;;;10.70;7.40;;;;;;;;;;10278037;28;20134;-76
2024/03/21 12:09:46;;;;;;;12.27;9.43;;;;;;;;;;10283839;28;20118;-76
2024/03/21 12:14:50;;;;;;;12.50;8.55;;;;;;;;;;10270418;28;20399;-74
2024/03/21 12:19:52;;;;;;;14.85;8.68;;;;;;;;;;10285878;28;20053;-74
2024/03/21 12:24:56;;;;;;;13.90;9.07;;;;;;;;;;10293975;28;20038;-74
2024/03/21 12:30:00;;;;;;;13.50;9.02;;;;;;;;;;10300007;28;20050;-74
2024/03/21 12:35:03;;;;;;;13.25;8.85;;;;;;;;;;10270773;28;20050;-74
2024/03/21 12:40:07;;;;;;;10.38;7.10;;;;;;;;;;10268893;28;20543;-74
2024/03/21 12:45:11;;;;;;;13.23;10.23;;;;;;;;;;10255527;28;20498;-74
2024/03/21 12:50:14;;;;;;;11.93;9.07;;;;;;;;;;10268779;28;20125;-74
2024/03/21 12:55:16;;;;;;;14.43;10.18;;;;;;;;;;10276444;28;20400;-74
2024/03/21 13:00:21;;;;;;;15.25;10.60;;;;;;;;;;10269568;28;20043;-74
2024/03/21 13:05:23;;;;;;;13.00;9.63;;;;;;;;;;10273039;28;20043;-76
2024/03/21 13:10:25;;;;;;;14.95;10.70;;;;;;;;;;10296039;28;20038;-74
2024/03/21 13:15:29;;;;;;;11.98;8.82;;;;;;;;;;10276277;28;20052;-74
2024/03/21 13:20:32;;;;;;;11.60;8.98;;;;;;;;;;10283022;28;20046;-76
2024/03/21 13:25:35;;;;;;;14.10;10.38;;;;;;;;;;10289273;28;20042;-76
2024/03/21 13:30:39;;;;;;;12.43;8.90;;;;;;;;;;10286113;28;20045;-74
2024/03/21 13:35:42;;;;;;;13.93;8.57;;;;;;;;;;10288373;28;20047;-76
2024/03/21 13:40:45;;;;;;;13.73;10.13;;;;;;;;;;10295708;28;20053;-76
2024/03/21 13:45:54;;;;;;;11.38;8.35;;;;;;;;;;10275658;28;20046;-76
2024/03/21 13:50:56;;;;;;;12.63;8.90;;;;;;;;;;10275487;28;20531;-75
2024/03/21 13:55:59;;;;;;;13.00;9.10;;;;;;;;;;10303352;28;20047;-74
2024/03/21 14:01:04;;;;;;;11.73;8.52;;;;;;;;;;10272273;28;20047;-74
2024/03/21 14:06:08;;;;;;;9.63;7.28;;;;;;;;;;10283295;28;20050;-76
2024/03/21 14:11:10;;;;;;;10.45;6.78;;;;;;;;;;10284709;28;20050;-74
2024/03/21 14:16:14;;;;;;;12.13;8.50;;;;;;;;;;10290545;28;20061;-74
2024/03/21 14:21:16;;;;;;;12.35;8.68;;;;;;;;;;10277793;28;20051;-74
2024/03/21 14:26:19;;;;;;;8.20;6.18;;;;;;;;;;10278188;28;20111;-74
2024/03/21 14:31:23;;;;;;;8.80;5.68;;;;;;;;;;10271474;28;20077;-74
2024/03/21 14:36:25;;;;;;;6.55;5.07;;;;;;;;;;10270635;28;20090;-74
2024/03/21 14:41:29;;;;;;;6.97;5.45;;;;;;;;;;10298504;28;20044;-74
2024/03/21 14:46:33;;;;;;;8.55;6.20;;;;;;;;;;10265431;28;20066;-74
2024/03/21 14:51:35;;;;;;;12.68;8.90;;;;;;;;;;10270509;28;20095;-74
2024/03/21 14:56:38;;;;;;;10.73;7.80;;;;;;;;;;10282403;28;20241;-74
2024/03/21 15:01:41;;;;;;;7.43;5.70;;;;;;;;;;10284595;28;20047;-74
2024/03/21 15:06:44;;;;;;;6.85;4.45;;;;;;;;;;10285441;28;20054;-74
2024/03/21 15:11:47;;;;;;;4.15;3.67;;;;;;;;;;10283420;28;20042;-74
2024/03/21 15:16:51;;;;;;;4.22;3.63;;;;;;;;;;10348891;28;20035;-74
2024/03/21 15:21:54;;;;;;;5.93;4.70;;;;;;;;;;10276840;28;20310;-74
2024/03/21 15:26:56;;;;;;;5.25;4.35;;;;;;;;;;10267158;28;20054;-74
2024/03/21 15:32:00;;;;;;;5.43;4.03;;;;;;;;;;10267233;28;20050;-74
2024/03/21 15:37:02;;;;;;;4.45;3.78;;;;;;;;;;10264086;28;20081;-74
2024/03/21 15:42:05;;;;;;;6.10;4.25;;;;;;;;;;10266303;28;20043;-74
2024/03/21 15:47:09;;;;;;;7.60;4.72;;;;;;;;;;10269298;28;20061;-74
2024/03/21 15:52:11;;;;;;;6.75;5.43;;;;;;;;;;10241432;28;20069;-74
2024/03/21 15:57:13;;;;;;;6.65;4.40;;;;;;;;;;10263558;28;20043;-74
2024/03/21 16:02:17;;;;;;;2.67;2.33;;;;;;;;;;10253584;28;20058;-74
2024/03/21 16:07:19;;;;;;;6.25;4.35;;;;;;;;;;10258022;28;20451;-74
2024/03/21 16:12:25;;;;;;;5.65;3.90;;;;;;;;;;10257343;28;20049;-74
2024/03/21 16:17:29;;;;;;;4.70;3.47;;;;;;;;;;10257565;28;20054;-74
2024/03/21 16:22:31;;;;;;;6.88;4.97;;;;;;;;;;10240873;28;20051;-74
2024/03/21 16:27:34;;;;;;;4.68;3.63;;;;;;;;;;10264616;28;20669;-74
2024/03/21 16:32:38;;;;;;;4.63;3.80;;;;;;;;;;10261871;28;20527;-74
2024/03/21 16:37:40;;;;;;;3.22;2.40;;;;;;;;;;10256413;28;20043;-74
2024/03/21 16:42:42;;;;;;;2.75;2.08;;;;;;;;;;10298575;28;20043;-74
2024/03/21 16:47:46;;;;;;;5.22;2.85;;;;;;;;;;10274747;28;20610;-76
2024/03/21 16:52:51;;;;;;;4.95;3.65;;;;;;;;;;10279408;28;20039;-74
2024/03/21 16:57:54;;;;;;;3.47;2.58;;;;;;;;;;10262972;28;20042;-74
2024/03/21 17:03:00;;;;;;;3.42;2.58;;;;;;;;;;10274146;28;20427;-74
2024/03/21 17:08:02;;;;;;;;;;;;;;;;;;10272375;28;20046;-74
2024/03/21 17:13:04;;;;;;;4.38;1.98;;;;;;;;;;10296762;28;19946;-73
2024/03/21 17:18:14;;;;;;;2.92;2.38;;;;;;;;;;10293149;23;20042;-74
2024/03/21 17:23:23;;;;;;;2.15;1.95;;;;;;;;;;10271515;28;20047;-73
2024/03/21 17:28:31;;;;;;;3.00;2.03;;;;;;;;;;10259583;28;20051;-73
2024/03/21 17:33:38;;;;;;;2.25;2.05;;;;;;;;;;10221327;28;20043;-73
2024/03/21 17:38:56;;;;;;;2.80;2.28;;;;;;;;;;10231923;28;20610;-73
2024/03/21 17:44:05;;;;;;;3.38;2.80;;;;;;;;;;10234874;28;20098;-73
2024/03/21 17:49:25;;;;;;;;;;;;;;;;;;10235501;28;20049;-73
2024/03/21 17:54:27;;;;;;;5.00;2.60;;;;;;;;;;10229650;28;19923;-73
2024/03/21 17:59:29;;;;;;;3.47;2.67;;;;;;;;;;10222623;28;20044;-73
2024/03/21 18:04:33;;;;;;;3.80;3.03;;;;;;;;;;10207073;28;20039;-73
2024/03/21 18:09:36;;;;;;;4.60;3.20;;;;;;;;;;10211039;28;20425;-74
2024/03/21 18:14:39;;;;;;;3.60;2.72;;;;;;;;;;10222854;28;20040;-74
2024/03/21 18:19:43;;;;;;;4.63;3.20;;;;;;;;;;10213122;28;20062;-73
2024/03/21 18:24:45;;;;;;;4.00;3.17;;;;;;;;;;10225985;28;20039;-73
2024/03/21 18:29:47;;;;;;;3.60;2.90;;;;;;;;;;10217807;28;20040;-73
2024/03/21 18:34:51;;;;;;;4.05;3.28;;;;;;;;;;10220107;28;20036;-73
2024/03/21 18:39:55;;;;;;;3.67;3.22;;;;;;;;;;10230467;28;20432;-73
2024/03/21 18:44:57;;;;;;;4.00;3.25;;;;;;;;;;10246412;28;20635;-73
2024/03/21 18:50:01;;;;;;;3.47;2.97;;;;;;;;;;10232763;28;20039;-73
2024/03/21 18:55:05;;;;;;;4.57;3.35;;;;;;;;;;10226268;28;20051;-73
2024/03/21 19:00:08;;;;;;;4.45;3.83;;;;;;;;;;10231798;28;20047;-73
2024/03/21 19:05:12;;;;;;;5.57;3.65;;;;;;;;;;10220801;28;20230;-73
2024/03/21 19:10:15;;;;;;;6.13;4.05;;;;;;;;;;10221382;28;20066;-73
2024/03/21 19:15:17;;;;;;;4.50;3.47;;;;;;;;;;10228828;28;20400;-73
2024/03/21 19:20:21;;;;;;;6.68;4.47;;;;;;;;;;10209380;28;20081;-73
2024/03/21 19:25:23;;;;;;;7.65;5.38;;;;;;;;;;10225431;28;20881;-73
2024/03/21 19:30:28;;;;;;;8.75;5.88;;;;;;;;;;10238004;28;20041;-73
2024/03/21 19:35:33;;;;;;;9.10;6.13;;;;;;;;;;10229806;28;20086;-73
2024/03/21 19:40:36;;;;;;;8.25;5.97;;;;;;;;;;10262116;28;20047;-73
2024/03/21 19:45:40;;;;;;;8.27;5.68;;;;;;;;;;10203557;28;20057;-73
2024/03/21 19:50:46;;;;;;;9.68;5.40;;;;;;;;;;10221042;28;20059;-73
2024/03/21 19:56:00;;;;;;;11.50;5.95;;;;;;;;;;10205625;28;20050;-73
2024/03/21 20:01:09;;;;;;;11.13;6.22;;;;;;;;;;10233405;28;20051;-74
2024/03/21 20:06:13;;;;;;;14.93;7.53;;;;;;;;;;10225950;28;20039;-73
2024/03/21 20:11:31;;;;;;;11.70;6.57;;;;;;;;;;10226457;28;20036;-73
2024/03/21 20:16:34;;;;;;;9.18;5.85;;;;;;;;;;10223409;28;20486;-73
2024/03/21 20:21:39;;;;;;;6.30;4.28;;;;;;;;;;10225024;28;20089;-73
2024/03/21 20:26:42;;;;;;;7.00;4.60;;;;;;;;;;10217848;28;20051;-73
2024/03/21 20:31:44;;;;;;;8.52;5.03;;;;;;;;;;10211942;28;20645;-73
2024/03/21 20:36:48;;;;;;;6.28;4.65;;;;;;;;;;10223605;28;20435;-73
2024/03/21 20:41:50;;;;;;;9.32;5.45;;;;;;;;;;10230798;28;20043;-73
2024/03/21 20:46:54;;;;;;;8.18;5.38;;;;;;;;;;10225428;28;20343;-73
2024/03/21 20:51:57;;;;;;;6.60;4.85;;;;;;;;;;10224917;28;20094;-73
2024/03/21 20:57:00;;;;;;;6.25;4.20;;;;;;;;;;10230754;28;20058;-73
2024/03/21 21:02:03;;;;;;;4.57;3.78;;;;;;;;;;10234368;28;20044;-73
2024/03/21 21:07:07;;;;;;;6.25;4.28;;;;;;;;;;10229064;28;20096;-72
2024/03/21 21:12:10;;;;;;;5.68;4.50;;;;;;;;;;10224333;28;20106;-73
2024/03/21 21:17:12;;;;;;;6.97;5.03;;;;;;;;;;10233230;28;20039;-73
2024/03/21 21:22:15;;;;;;;5.78;4.63;;;;;;;;;;10218499;28;20237;-73
2024/03/21 21:27:18;;;;;;;5.03;3.92;;;;;;;;;;10220586;28;20426;-73
2024/03/21 21:32:20;;;;;;;6.00;4.00;;;;;;;;;;10223700;28;20826;-73
2024/03/21 21:37:24;;;;;;;5.65;3.80;;;;;;;;;;10224072;28;20492;-73
2024/03/21 21:42:26;;;;;;;6.18;4.40;;;;;;;;;;10221175;28;20043;-73
2024/03/21 21:47:29;;;;;;;5.80;4.05;;;;;;;;;;10231300;28;20043;-73
2024/03/21 21:52:32;;;;;;;7.30;4.20;;;;;;;;;;10232375;28;20051;-73
2024/03/21 21:57:35;;;;;;;5.65;3.90;;;;;;;;;;10229605;28;20382;-73
2024/03/21 22:02:37;;;;;;;7.80;4.03;;;;;;;;;;10219397;28;20040;-73
2024/03/21 22:07:41;;;;;;;5.18;3.60;;;;;;;;;;10218301;28;20043;-72
2024/03/21 22:12:44;;;;;;;6.95;4.47;;;;;;;;;;10236576;28;20074;-73
2024/03/21 22:17:47;;;;;;;5.32;3.83;;;;;;;;;;10225593;28;20053;-73
2024/03/21 22:22:50;;;;;;;5.50;4.05;;;;;;;;;;10208444;28;20070;-73
2024/03/21 22:27:53;;;;;;;5.63;4.00;;;;;;;;;;10220758;28;20054;-73
2024/03/21 22:32:55;;;;;;;4.35;3.55;;;;;;;;;;10216423;28;20774;-73
2024/03/21 22:37:58;;;;;;;5.03;3.90;;;;;;;;;;10213530;28;20040;-73
2024/03/21 22:43:01;;;;;;;6.63;3.42;;;;;;;;;;10227146;28;20047;-73
2024/03/21 22:48:04;;;;;;;4.95;3.33;;;;;;;;;;10239326;28;20240;-72
2024/03/21 22:53:07;;;;;;;5.57;3.83;;;;;;;;;;10220303;28;20094;-73
2024/03/21 22:58:10;;;;;;;5.20;4.00;;;;;;;;;;10214567;28;20663;-73
2024/03/21 23:03:12;;;;;;;5.28;3.38;;;;;;;;;;10238154;28;20047;-73
2024/03/21 23:08:16;;;;;;;8.15;4.82;;;;;;;;;;10212366;28;20105;-73
2024/03/21 23:13:18;;;;;;;6.57;4.53;;;;;;;;;;10228189;28;20725;-73
2024/03/21 23:18:21;;;;;;;7.93;4.57;;;;;;;;;;10236863;22;20054;-74
2024/03/21 23:23:24;;;;;;;6.40;4.07;;;;;;;;;;10285811;28;20427;-74
2024/03/21 23:28:27;;;;;;;6.43;4.88;;;;;;;;;;10281922;28;20509;-74
2024/03/21 23:33:29;;;;;;;6.35;4.50;;;;;;;;;;10262350;28;20448;-74
2024/03/21 23:38:33;;;;;;;6.60;4.45;;;;;;;;;;10251256;28;20077;-74
2024/03/21 23:43:35;;;;;;;6.32;4.50;;;;;;;;;;10270292;28;20054;-74
2024/03/21 23:48:38;;;;;;;7.68;4.60;;;;;;;;;;10302650;28;20041;-74
2024/03/21 23:53:41;;;;;;;5.55;3.58;;;;;;;;;;10265325;28;20042;-74
2024/03/21 23:58:44;;;;;;;5.38;3.65;;;;;;;;;;10259650;28;20054;-74
